Sierra Bonita, Arizona
Current Conditions -  °F | °C
As of 11:51 AM on Friday 28 Nov 2014 (Local Time) from KSAD Reporting Station
Clear Clear  
Wind Chill: 65°   Ceiling: Unl
Heat Index: 65°   Visibility: 10mi
Dew Point: 22°   Wind: 8mph
Humidity: 19%   Direction: 140°SE
Pressure: 30.14"   Gusts: NA
Location:  32.5598°N, 110.08°W
Report Text: KSAD 281851Z AUTO 14007KT 10SM CLR 18/M06 A3014 RMK AO2 SLP180 T01831056
Loading
Personal Weather Stations






























Interactive Weather Map New forecast layout! Learn more

10-Day Weather Forecast

Advertisements
Track Severe Weather on mobile